createdAt,value
2019-06-26T00:03:57.599Z,28.20
2019-06-26T00:09:00.033Z,28.10
2019-06-26T00:14:02.532Z,28.10
2019-06-26T00:19:05.014Z,28.10
2019-06-26T00:24:07.451Z,28.00
2019-06-26T00:29:09.885Z,27.90
2019-06-26T00:34:12.291Z,27.90
2019-06-26T00:39:14.687Z,27.80
2019-06-26T00:44:17.180Z,27.90
2019-06-26T00:49:19.879Z,27.90
2019-06-26T00:54:22.341Z,27.90
2019-06-26T00:59:24.807Z,27.80
2019-06-26T01:04:35.370Z,27.80
2019-06-26T01:09:37.859Z,27.60
2019-06-26T01:14:40.371Z,27.50
2019-06-26T01:19:42.892Z,27.50
2019-06-26T01:24:45.367Z,27.50
2019-06-26T01:29:47.777Z,27.50
2019-06-26T01:34:50.227Z,27.40
2019-06-26T01:39:52.708Z,27.10
2019-06-26T01:44:55.162Z,26.90
2019-06-26T01:49:57.607Z,27.00
2019-06-26T01:55:00.047Z,27.10
2019-06-26T02:00:02.571Z,27.20
2019-06-26T02:05:05.757Z,27.10
2019-06-26T02:10:08.373Z,27.00
2019-06-26T02:15:10.955Z,26.80
2019-06-26T02:20:16.782Z,26.80
2019-06-26T02:25:19.820Z,26.80
2019-06-26T02:30:22.294Z,26.80
2019-06-26T02:35:24.688Z,26.80
2019-06-26T02:40:27.175Z,26.90
2019-06-26T02:45:29.574Z,26.80
2019-06-26T02:50:32.071Z,26.70
2019-06-26T02:55:34.607Z,26.70
2019-06-26T03:00:37.086Z,26.60
2019-06-26T03:05:39.530Z,26.70
2019-06-26T03:10:42.080Z,26.60
2019-06-26T03:15:44.546Z,26.60
2019-06-26T03:20:47.282Z,26.50
2019-06-26T03:25:49.776Z,26.30
2019-06-26T03:30:52.330Z,26.40
2019-06-26T03:35:54.812Z,26.40
2019-06-26T03:40:57.441Z,26.40
2019-06-26T03:45:59.871Z,26.30
2019-06-26T03:51:02.390Z,26.30
2019-06-26T03:56:04.923Z,26.20
2019-06-26T04:01:07.492Z,26.30
2019-06-26T04:06:09.979Z,26.30
2019-06-26T04:11:12.457Z,26.30
2019-06-26T04:16:14.961Z,26.30
2019-06-26T04:21:17.429Z,26.20
2019-06-26T04:26:19.936Z,26.20
2019-06-26T04:31:22.405Z,26.20
2019-06-26T04:36:24.886Z,26.30
2019-06-26T04:41:27.382Z,26.20
2019-06-26T04:46:29.874Z,26.10
2019-06-26T04:51:32.357Z,26.00
2019-06-26T04:56:34.792Z,25.90
2019-06-26T05:01:37.263Z,25.60
2019-06-26T05:06:39.723Z,25.40
2019-06-26T05:11:42.150Z,25.40
2019-06-26T05:16:44.708Z,25.70
2019-06-26T05:21:47.406Z,25.90
2019-06-26T05:26:49.879Z,26.10
2019-06-26T05:31:52.505Z,25.50
2019-06-26T05:36:55.047Z,25.40
2019-06-26T05:41:57.587Z,25.10
2019-06-26T05:47:00.153Z,25.20
2019-06-26T05:52:02.584Z,25.20
2019-06-26T05:57:05.089Z,25.20
2019-06-26T06:02:07.579Z,25.40
2019-06-26T06:07:10.059Z,25.50
2019-06-26T06:12:12.620Z,25.50
2019-06-26T06:17:15.018Z,25.60
2019-06-26T06:22:17.547Z,25.60
2019-06-26T06:27:20.359Z,25.70
2019-06-26T06:32:22.766Z,25.90
2019-06-26T06:37:25.432Z,25.90
2019-06-26T06:42:27.975Z,25.50
2019-06-26T06:47:30.453Z,25.80
2019-06-26T06:52:32.944Z,26.00
2019-06-26T06:57:35.444Z,26.30
2019-06-26T07:02:38.119Z,26.30
2019-06-26T07:07:40.765Z,26.50
2019-06-26T07:12:43.320Z,26.70
2019-06-26T07:17:45.952Z,26.90
2019-06-26T07:22:48.403Z,26.70
2019-06-26T07:27:50.852Z,27.40
2019-06-26T07:32:53.308Z,27.70
2019-06-26T07:37:55.724Z,28.00
2019-06-26T07:42:58.266Z,28.20
2019-06-26T07:48:00.818Z,28.50
2019-06-26T07:53:03.331Z,28.60
2019-06-26T07:58:12.168Z,28.90
2019-06-26T08:03:14.638Z,29.00
2019-06-26T08:08:17.142Z,29.30
2019-06-26T08:13:19.728Z,29.60
2019-06-26T08:18:22.240Z,29.80
2019-06-26T08:23:24.812Z,30.10
2019-06-26T08:28:27.551Z,30.20
2019-06-26T08:33:30.071Z,30.30
2019-06-26T08:38:32.580Z,30.70
2019-06-26T08:43:35.135Z,31.10
2019-06-26T08:48:39.979Z,31.40
2019-06-26T08:53:40.197Z,31.50
2019-06-26T08:58:42.663Z,31.90
2019-06-26T09:03:45.221Z,32.00
2019-06-26T09:08:47.693Z,32.00
2019-06-26T09:13:50.183Z,32.40
2019-06-26T09:18:52.721Z,32.80
2019-06-26T09:23:55.205Z,32.80
2019-06-26T09:28:57.683Z,33.10
2019-06-26T09:34:00.076Z,33.40
2019-06-26T09:39:02.636Z,33.90
2019-06-26T09:44:05.070Z,34.10
2019-06-26T09:49:07.538Z,34.40
2019-06-26T09:54:10.132Z,34.80
2019-06-26T09:59:12.627Z,34.70
2019-06-26T10:04:15.069Z,34.90
2019-06-26T10:09:17.537Z,35.20
2019-06-26T10:14:19.969Z,35.50
2019-06-26T10:19:22.397Z,35.50
2019-06-26T10:24:24.898Z,35.90
2019-06-26T10:29:27.377Z,36.30
2019-06-26T10:34:29.868Z,36.40
2019-06-26T10:39:32.402Z,36.60
2019-06-26T10:44:34.841Z,36.90
2019-06-26T10:49:37.305Z,36.60
2019-06-26T10:54:43.304Z,36.50
2019-06-26T10:59:42.400Z,37.00
2019-06-26T11:04:44.856Z,37.30
2019-06-26T11:09:47.334Z,37.50
2019-06-26T11:14:49.723Z,37.50
2019-06-26T11:19:55.375Z,37.50
2019-06-26T11:24:54.770Z,37.80
2019-06-26T11:29:57.216Z,38.30
2019-06-26T11:34:59.686Z,38.30
2019-06-26T11:40:02.534Z,38.10
2019-06-26T11:45:05.241Z,38.20
2019-06-26T11:50:08.997Z,38.30
2019-06-26T11:55:11.538Z,38.30
2019-06-26T12:00:14.371Z,38.30
2019-06-26T12:05:16.873Z,38.60
2019-06-26T12:10:19.777Z,38.60
2019-06-26T12:15:22.257Z,38.70
2019-06-26T12:20:24.686Z,38.90
2019-06-26T12:25:27.198Z,39.10
2019-06-26T12:30:29.718Z,39.10
2019-06-26T12:35:32.260Z,39.30
2019-06-26T12:40:34.764Z,39.30
2019-06-26T12:45:37.218Z,39.30
2019-06-26T12:50:39.811Z,39.80
2019-06-26T12:55:42.261Z,39.70
2019-06-26T13:00:45.611Z,39.80
2019-06-26T13:05:48.029Z,39.80
2019-06-26T13:10:56.680Z,39.80
2019-06-26T13:15:59.209Z,39.80
2019-06-26T13:21:04.911Z,39.80
2019-06-26T13:26:04.136Z,39.80
2019-06-26T13:31:06.575Z,39.90
2019-06-26T13:36:09.101Z,39.60
2019-06-26T13:41:11.670Z,39.60
2019-06-26T13:46:14.160Z,39.60
2019-06-26T13:51:16.649Z,39.60
2019-06-26T13:56:19.191Z,39.70
2019-06-26T14:01:23.188Z,39.60
2019-06-26T14:06:24.175Z,39.70
2019-06-26T14:11:26.642Z,39.70
2019-06-26T14:16:29.987Z,39.70
2019-06-26T14:21:31.646Z,39.60
2019-06-26T14:26:34.057Z,39.70
2019-06-26T14:31:42.811Z,39.60
2019-06-26T14:36:47.338Z,39.60
2019-06-26T14:41:50.061Z,39.70
2019-06-26T14:46:54.436Z,39.50
2019-06-26T14:51:56.977Z,39.60
2019-06-26T14:56:59.561Z,39.60
2019-06-26T15:02:02.200Z,39.50
2019-06-26T15:07:04.678Z,39.40
2019-06-26T15:12:07.226Z,39.50
2019-06-26T15:17:09.755Z,39.40
2019-06-26T15:22:12.254Z,39.20
2019-06-26T15:27:14.741Z,39.20
2019-06-26T15:32:17.295Z,39.00
2019-06-26T15:37:19.771Z,39.00
2019-06-26T15:42:22.305Z,39.00
2019-06-26T15:47:24.839Z,38.70
2019-06-26T15:52:27.381Z,38.70
2019-06-26T15:57:36.208Z,38.60
2019-06-26T16:02:39.524Z,38.40
2019-06-26T16:07:42.083Z,38.40
2019-06-26T16:12:44.663Z,38.30
2019-06-26T16:17:55.839Z,38.10
2019-06-26T16:22:58.469Z,38.00
2019-06-26T16:28:05.900Z,38.00
2019-06-26T16:33:04.399Z,37.80
2019-06-26T16:38:07.068Z,37.70
2019-06-26T16:43:09.628Z,37.70
2019-06-26T16:48:12.272Z,37.50
2019-06-26T16:53:14.704Z,37.30
2019-06-26T16:58:17.254Z,37.30
2019-06-26T17:03:19.680Z,37.20
2019-06-26T17:08:22.204Z,37.20
2019-06-26T17:13:24.711Z,37.00
2019-06-26T17:18:27.197Z,36.90
2019-06-26T17:23:29.706Z,36.90
2019-06-26T17:28:34.250Z,36.80
2019-06-26T17:33:36.840Z,36.70
2019-06-26T17:38:39.293Z,36.60
2019-06-26T17:43:41.871Z,36.50
2019-06-26T17:48:44.496Z,36.40
2019-06-26T17:53:46.997Z,36.30
2019-06-26T17:58:50.598Z,36.20
2019-06-26T18:03:59.378Z,36.00
2019-06-26T18:09:02.949Z,35.90
2019-06-26T18:14:11.498Z,35.80
2019-06-26T18:19:13.961Z,35.70
2019-06-26T18:24:16.606Z,35.60
2019-06-26T18:29:19.093Z,35.40
2019-06-26T18:34:27.859Z,35.20
2019-06-26T18:39:30.456Z,35.10
2019-06-26T18:44:33.025Z,35.00
2019-06-26T18:49:35.587Z,34.80
2019-06-26T18:54:44.353Z,34.70
2019-06-26T18:59:48.152Z,34.50
2019-06-26T19:04:54.031Z,34.40
2019-06-26T19:09:59.117Z,34.30
2019-06-26T19:15:06.635Z,34.20
2019-06-26T19:20:09.163Z,34.10
2019-06-26T19:25:11.763Z,34.00
2019-06-26T19:30:14.375Z,33.90
2019-06-26T19:35:19.295Z,33.80
2019-06-26T19:40:19.435Z,33.70
2019-06-26T19:45:22.048Z,33.60
2019-06-26T19:50:24.566Z,33.60
2019-06-26T19:55:27.082Z,33.50
2019-06-26T20:00:29.651Z,33.40
2019-06-26T20:05:32.126Z,33.40
2019-06-26T20:10:40.927Z,33.20
2019-06-26T20:15:44.416Z,33.10
2019-06-26T20:20:46.857Z,33.00
2019-06-26T20:25:49.406Z,32.90
2019-06-26T20:30:51.942Z,32.80
2019-06-26T20:36:00.600Z,32.80
2019-06-26T20:41:03.113Z,32.70
2019-06-26T20:46:05.776Z,32.70
2019-06-26T20:51:08.235Z,32.50
2019-06-26T20:56:10.908Z,32.40
2019-06-26T21:01:17.410Z,32.40
2019-06-26T21:06:23.959Z,32.40
2019-06-26T21:11:26.601Z,32.40
2019-06-26T21:16:30.555Z,32.30
2019-06-26T21:21:33.076Z,32.20
2019-06-26T21:26:41.826Z,32.10
2019-06-26T21:31:45.116Z,31.90
2019-06-26T21:36:47.695Z,31.90
2019-06-26T21:41:50.229Z,31.90
2019-06-26T21:52:02.228Z,31.40
2019-06-26T21:57:04.699Z,31.50
2019-06-26T22:02:07.260Z,31.60
2019-06-26T22:07:13.730Z,31.60
2019-06-26T22:12:22.620Z,31.60
2019-06-26T22:17:28.496Z,31.60
2019-06-26T22:22:32.972Z,31.60
2019-06-26T22:27:41.813Z,31.50
2019-06-26T22:32:44.416Z,31.40
2019-06-26T22:37:53.144Z,31.40
2019-06-26T22:42:55.697Z,31.10
2019-06-26T22:48:04.378Z,31.10
2019-06-26T22:53:06.978Z,31.10
2019-06-26T22:58:15.680Z,31.10
2019-06-26T23:03:19.314Z,31.00
2019-06-26T23:08:22.840Z,30.60
2019-06-26T23:13:25.440Z,30.70
2019-06-26T23:18:34.104Z,30.80
2019-06-26T23:23:36.715Z,30.80
2019-06-26T23:28:39.333Z,30.80
2019-06-26T23:33:48.179Z,30.70
2019-06-26T23:38:50.636Z,30.60
2019-06-26T23:43:53.150Z,30.40
2019-06-26T23:48:55.705Z,30.50
2019-06-26T23:53:58.180Z,30.50
2019-06-26T23:59:00.662Z,30.40
